Time;durP1;ratioP1;P1;durP2;ratioP2;P2;SDS_P1;SDS_P2;PMS_P1;PMS_P2;Temp;Humidity;BMP_temperature;BMP_pressure;BME280_temperature;BME280_humidity;BME280_pressure;Samples;Min_cycle;Max_cycle;Signal;HPM_P1;HPM_P2
2022/10/19 00:02:23;;;;;;;29.25;12.65;;;;;;;;;;4987179;28;20034;-72
2022/10/19 00:04:49;;;;;;;115.00;14.98;;;;;;;;;;4987938;28;20045;-72
2022/10/19 00:07:14;;;;;;;74.93;15.13;;;;;;;;;;4985259;28;20050;-72
2022/10/19 00:09:43;;;;;;;64.15;14.68;;;;;;;;;;4982171;28;20035;-71
2022/10/19 00:12:08;;;;;;;46.20;13.03;;;;;;;;;;4987116;28;20034;-71
2022/10/19 00:14:34;;;;;;;62.80;14.07;;;;;;;;;;4987183;28;20042;-72
2022/10/19 00:16:59;;;;;;;70.32;15.45;;;;;;;;;;4988056;28;20541;-72
2022/10/19 00:19:26;;;;;;;30.90;13.82;;;;;;;;;;4986535;28;20042;-72
2022/10/19 00:21:52;;;;;;;42.33;14.48;;;;;;;;;;4984267;28;20041;-73
2022/10/19 00:24:18;;;;;;;32.85;15.18;;;;;;;;;;4987734;28;20042;-71
2022/10/19 00:26:43;;;;;;;31.98;14.23;;;;;;;;;;4987472;28;20473;-72
2022/10/19 00:29:11;;;;;;;36.40;13.93;;;;;;;;;;4984855;28;20026;-71
2022/10/19 00:31:37;;;;;;;32.25;13.40;;;;;;;;;;4986722;28;20147;-71
2022/10/19 00:34:03;;;;;;;32.33;14.63;;;;;;;;;;4987234;28;20161;-71
2022/10/19 00:36:32;;;;;;;123.93;16.70;;;;;;;;;;4987775;28;20713;-73
2022/10/19 00:38:58;;;;;;;24.40;14.45;;;;;;;;;;4985464;28;20049;-71
2022/10/19 00:41:27;;;;;;;14.57;12.57;;;;;;;;;;4986869;28;20046;-71
2022/10/19 00:44:04;;;;;;;21.65;12.05;;;;;;;;;;4987255;28;20034;-72
2022/10/19 00:46:32;;;;;;;17.52;13.70;;;;;;;;;;4987245;28;20121;-72
2022/10/19 00:49:01;;;;;;;14.30;12.02;;;;;;;;;;4984801;28;20393;-72
2022/10/19 00:51:27;;;;;;;15.15;12.55;;;;;;;;;;4985716;28;20077;-71
2022/10/19 00:53:55;;;;;;;24.10;12.77;;;;;;;;;;4987979;28;20501;-72
2022/10/19 00:56:20;;;;;;;17.98;12.25;;;;;;;;;;4985741;28;20560;-71
2022/10/19 00:58:46;;;;;;;18.77;13.40;;;;;;;;;;4985922;28;20076;-71
2022/10/19 01:01:16;;;;;;;18.70;13.35;;;;;;;;;;4988865;28;20117;-71
2022/10/19 01:03:42;;;;;;;23.30;13.55;;;;;;;;;;4989992;28;20062;-73
2022/10/19 01:06:08;;;;;;;20.75;13.27;;;;;;;;;;4988932;28;20421;-73
2022/10/19 01:08:34;;;;;;;21.13;13.43;;;;;;;;;;4990789;28;20158;-72
2022/10/19 01:11:13;;;;;;;26.98;14.40;;;;;;;;;;4990243;28;20661;-72
2022/10/19 01:13:47;;;;;;;21.02;13.68;;;;;;;;;;4987905;28;20030;-72
2022/10/19 01:16:53;;;;;;;25.17;13.82;;;;;;;;;;4990467;28;20081;-71
2022/10/19 01:20:15;;;;;;;38.13;15.52;;;;;;;;;;4996442;28;20041;-72
2022/10/19 01:23:02;;;;;;;53.08;15.38;;;;;;;;;;4909875;29;20087;-71
2022/10/19 01:25:38;;;;;;;52.28;17.10;;;;;;;;;;4919725;29;20055;-72
2022/10/19 01:28:43;;;;;;;40.53;15.70;;;;;;;;;;4918340;29;20047;-71
2022/10/19 01:31:37;;;;;;;67.40;17.85;;;;;;;;;;4913222;29;20532;-72
2022/10/19 01:34:14;;;;;;;55.88;16.02;;;;;;;;;;4905188;29;20261;-72
2022/10/19 01:37:11;;;;;;;54.25;15.32;;;;;;;;;;4918608;29;20127;-72
2022/10/19 01:39:36;;;;;;;78.15;16.48;;;;;;;;;;4912982;29;20059;-72
2022/10/19 01:42:18;;;;;;;63.70;16.50;;;;;;;;;;4918713;29;20040;-72
2022/10/19 01:44:51;;;;;;;41.50;16.15;;;;;;;;;;4916445;29;20056;-72
2022/10/19 01:47:34;;;;;;;41.17;16.60;;;;;;;;;;4912691;29;20052;-71
2022/10/19 01:50:19;;;;;;;34.13;17.42;;;;;;;;;;4912931;29;20055;-73
2022/10/19 01:52:47;;;;;;;31.90;16.83;;;;;;;;;;4908905;29;20068;-72
2022/10/19 01:55:15;;;;;;;34.08;16.40;;;;;;;;;;4890816;29;20036;-71
2022/10/19 01:57:52;;;;;;;29.98;16.83;;;;;;;;;;4975832;28;20421;-72
2022/10/19 02:00:20;;;;;;;33.45;15.65;;;;;;;;;;4988945;28;20541;-72
2022/10/19 02:02:48;;;;;;;24.98;13.90;;;;;;;;;;4988855;28;20034;-73
2022/10/19 02:05:17;;;;;;;27.38;14.52;;;;;;;;;;4988771;28;20120;-71
2022/10/19 02:07:47;;;;;;;21.38;14.00;;;;;;;;;;4988425;28;20069;-71
2022/10/19 02:10:13;;;;;;;30.80;13.98;;;;;;;;;;4987317;28;20497;-72
2022/10/19 02:12:39;;;;;;;21.30;13.43;;;;;;;;;;4981176;28;20033;-72
2022/10/19 02:15:09;;;;;;;37.15;16.90;;;;;;;;;;4989014;28;20042;-71
2022/10/19 02:17:42;;;;;;;41.10;18.10;;;;;;;;;;4989152;28;20668;-72
2022/10/19 02:20:08;;;;;;;37.78;17.35;;;;;;;;;;4989642;28;20054;-71
2022/10/19 02:22:34;;;;;;;41.97;18.77;;;;;;;;;;4986980;28;20030;-71
2022/10/19 02:25:00;;;;;;;37.28;18.63;;;;;;;;;;4988897;28;20097;-72
2022/10/19 02:27:26;;;;;;;35.28;18.05;;;;;;;;;;4989659;28;20559;-71
2022/10/19 02:29:53;;;;;;;93.32;16.77;;;;;;;;;;4989324;28;20486;-71
2022/10/19 02:32:18;;;;;;;39.60;15.73;;;;;;;;;;4985408;28;20129;-71
2022/10/19 02:34:44;;;;;;;42.85;15.68;;;;;;;;;;4989211;28;20109;-71
2022/10/19 02:37:10;;;;;;;73.03;15.75;;;;;;;;;;4988738;28;20037;-72
2022/10/19 02:39:37;;;;;;;63.13;20.73;;;;;;;;;;4989167;28;20954;-72
2022/10/19 02:42:08;;;;;;;52.53;15.75;;;;;;;;;;4985120;28;20030;-71
2022/10/19 02:44:52;;;;;;;30.30;15.32;;;;;;;;;;4989136;28;20518;-73
2022/10/19 02:47:24;;;;;;;35.08;15.82;;;;;;;;;;4987862;28;20038;-72
2022/10/19 02:49:50;;;;;;;31.38;16.38;;;;;;;;;;4985963;28;20099;-72
2022/10/19 02:52:16;;;;;;;52.92;16.80;;;;;;;;;;4988293;28;20038;-73
2022/10/19 02:54:43;;;;;;;90.85;17.58;;;;;;;;;;4989130;28;20037;-73
2022/10/19 02:57:18;;;;;;;60.72;18.15;;;;;;;;;;4989074;28;20053;-71
2022/10/19 02:59:43;;;;;;;100.88;18.95;;;;;;;;;;4987691;28;20077;-71
2022/10/19 03:02:09;;;;;;;68.57;18.40;;;;;;;;;;4986933;28;20034;-71
2022/10/19 03:04:35;;;;;;;56.28;17.23;;;;;;;;;;4988110;28;20081;-72
2022/10/19 03:07:00;;;;;;;65.95;17.73;;;;;;;;;;4988778;28;20084;-73
2022/10/19 03:09:26;;;;;;;77.75;17.70;;;;;;;;;;4986277;28;20084;-71
2022/10/19 03:11:53;;;;;;;48.97;17.55;;;;;;;;;;4986688;28;20038;-71
2022/10/19 03:14:19;;;;;;;64.55;18.35;;;;;;;;;;4988254;28;20034;-71
2022/10/19 03:16:44;;;;;;;80.78;18.25;;;;;;;;;;4988418;28;20040;-73
2022/10/19 03:19:10;;;;;;;47.55;17.75;;;;;;;;;;4988460;28;20030;-71
2022/10/19 03:21:36;;;;;;;58.38;18.00;;;;;;;;;;4985075;28;20026;-71
2022/10/19 03:24:01;;;;;;;54.70;18.92;;;;;;;;;;4988362;28;20038;-72
2022/10/19 03:26:27;;;;;;;43.80;18.73;;;;;;;;;;4988498;28;20042;-73
2022/10/19 03:28:52;;;;;;;53.28;19.27;;;;;;;;;;4988421;28;20129;-72
2022/10/19 03:31:18;;;;;;;39.85;18.15;;;;;;;;;;4986605;28;20077;-71
2022/10/19 03:33:44;;;;;;;40.92;18.98;;;;;;;;;;4985671;28;20038;-71
2022/10/19 03:36:23;;;;;;;38.20;17.23;;;;;;;;;;4986628;28;20058;-72
2022/10/19 03:38:50;;;;;;;37.75;17.58;;;;;;;;;;4987107;28;20038;-71
2022/10/19 03:41:16;;;;;;;40.55;18.70;;;;;;;;;;4986857;28;20088;-71
2022/10/19 03:43:42;;;;;;;35.13;18.42;;;;;;;;;;4987038;28;20042;-71
2022/10/19 03:46:08;;;;;;;41.53;17.60;;;;;;;;;;4987834;28;20041;-73
2022/10/19 03:48:34;;;;;;;46.10;17.50;;;;;;;;;;4987798;28;20691;-71
2022/10/19 03:51:05;;;;;;;35.97;18.35;;;;;;;;;;4985918;28;20038;-71
2022/10/19 03:53:34;;;;;;;34.67;17.58;;;;;;;;;;4985434;28;20513;-71
2022/10/19 03:56:07;;;;;;;34.03;16.98;;;;;;;;;;4987575;28;20114;-72
2022/10/19 03:58:35;;;;;;;38.67;18.02;;;;;;;;;;4987100;28;20030;-72
2022/10/19 04:01:01;;;;;;;32.33;16.55;;;;;;;;;;4984577;28;20041;-72
2022/10/19 04:03:27;;;;;;;34.13;16.67;;;;;;;;;;4982875;28;20049;-72
2022/10/19 04:06:01;;;;;;;26.92;15.85;;;;;;;;;;4988174;28;20476;-72
2022/10/19 04:08:27;;;;;;;25.40;15.98;;;;;;;;;;4987922;28;20038;-71
2022/10/19 04:10:57;;;;;;;28.85;16.38;;;;;;;;;;4986059;28;20136;-72
2022/10/19 04:13:24;;;;;;;26.73;16.40;;;;;;;;;;4983705;28;20113;-71
2022/10/19 04:15:50;;;;;;;26.83;17.48;;;;;;;;;;4986862;28;20521;-70
2022/10/19 04:18:16;;;;;;;24.98;16.58;;;;;;;;;;4987533;28;20137;-71
2022/10/19 04:20:42;;;;;;;32.17;17.73;;;;;;;;;;4982145;28;20093;-71
2022/10/19 04:23:08;;;;;;;31.35;18.17;;;;;;;;;;4984281;28;20034;-71
2022/10/19 04:25:34;;;;;;;29.20;17.17;;;;;;;;;;4987556;28;20038;-72
2022/10/19 04:27:59;;;;;;;38.65;17.98;;;;;;;;;;4987043;28;20030;-73
2022/10/19 04:30:25;;;;;;;35.65;19.23;;;;;;;;;;4984145;28;20034;-71
2022/10/19 04:32:50;;;;;;;37.90;19.15;;;;;;;;;;4985932;28;20027;-71
2022/10/19 04:35:16;;;;;;;42.95;18.73;;;;;;;;;;4989619;28;20317;-71
2022/10/19 04:37:42;;;;;;;41.25;19.00;;;;;;;;;;4991513;28;20074;-73
2022/10/19 04:40:08;;;;;;;42.53;18.85;;;;;;;;;;4988463;28;20333;-72
2022/10/19 04:42:34;;;;;;;34.30;18.05;;;;;;;;;;4991254;28;20282;-73
2022/10/19 04:44:59;;;;;;;37.42;17.23;;;;;;;;;;4990515;28;20066;-72
2022/10/19 04:47:25;;;;;;;43.72;18.58;;;;;;;;;;4988216;28;20041;-71
2022/10/19 04:49:50;;;;;;;47.65;18.60;;;;;;;;;;4990888;28;20432;-72
2022/10/19 04:52:16;;;;;;;53.58;19.45;;;;;;;;;;4990435;28;20451;-71
2022/10/19 04:54:41;;;;;;;49.47;17.67;;;;;;;;;;4990882;28;20092;-71
2022/10/19 04:57:07;;;;;;;60.65;18.42;;;;;;;;;;4989226;28;20380;-71
2022/10/19 04:59:32;;;;;;;99.82;18.70;;;;;;;;;;4991169;28;20026;-72
2022/10/19 05:01:58;;;;;;;117.43;18.67;;;;;;;;;;4989321;28;20512;-70
2022/10/19 05:04:23;;;;;;;58.90;18.42;;;;;;;;;;4990740;28;20065;-72
2022/10/19 05:06:49;;;;;;;157.25;18.90;;;;;;;;;;4989942;28;20045;-72
2022/10/19 05:09:14;;;;;;;215.70;18.40;;;;;;;;;;4991663;28;20410;-72
2022/10/19 05:11:40;;;;;;;134.25;18.88;;;;;;;;;;4990694;28;20421;-71
2022/10/19 05:14:05;;;;;;;167.23;20.60;;;;;;;;;;4988172;28;20046;-72
2022/10/19 05:16:31;;;;;;;84.07;18.38;;;;;;;;;;4987031;28;20042;-71
2022/10/19 05:18:58;;;;;;;344.85;22.42;;;;;;;;;;4992612;28;20038;-71
2022/10/19 05:21:26;;;;;;;246.00;21.40;;;;;;;;;;4990097;28;20476;-72
2022/10/19 05:23:53;;;;;;;232.18;20.10;;;;;;;;;;4987893;28;20461;-72
2022/10/19 05:26:21;;;;;;;400.45;28.40;;;;;;;;;;4988686;28;20034;-71
2022/10/19 05:28:48;;;;;;;117.88;18.80;;;;;;;;;;4990748;28;20045;-71
2022/10/19 05:31:19;;;;;;;154.52;19.17;;;;;;;;;;4987317;28;20410;-71
2022/10/19 05:33:45;;;;;;;192.88;21.15;;;;;;;;;;4990297;28;20510;-71
2022/10/19 05:36:13;;;;;;;137.32;19.10;;;;;;;;;;4989440;28;20045;-71
2022/10/19 05:38:39;;;;;;;117.10;18.85;;;;;;;;;;4971953;28;20092;-72
2022/10/19 05:41:05;;;;;;;195.43;20.83;;;;;;;;;;4989981;28;20440;-72
2022/10/19 05:43:31;;;;;;;154.18;19.05;;;;;;;;;;5004248;28;20026;-71
2022/10/19 05:45:56;;;;;;;197.07;21.52;;;;;;;;;;4989099;28;20045;-72
2022/10/19 05:48:22;;;;;;;159.80;18.40;;;;;;;;;;4988240;28;20063;-72
2022/10/19 05:50:54;;;;;;;219.50;22.02;;;;;;;;;;4989910;28;20068;-72
2022/10/19 05:53:19;;;;;;;199.93;20.73;;;;;;;;;;4990980;28;20064;-72
2022/10/19 05:55:45;;;;;;;125.72;20.48;;;;;;;;;;4990539;28;20089;-71
2022/10/19 05:58:11;;;;;;;363.73;26.95;;;;;;;;;;4987744;28;20030;-72
2022/10/19 06:00:36;;;;;;;180.43;22.65;;;;;;;;;;4989353;28;20034;-72
2022/10/19 06:03:02;;;;;;;119.82;20.92;;;;;;;;;;5001875;23;20025;-72
2022/10/19 06:05:28;;;;;;;173.15;22.15;;;;;;;;;;4986306;28;20050;-68
2022/10/19 06:07:53;;;;;;;156.90;22.58;;;;;;;;;;4991680;28;20444;-68
2022/10/19 06:10:20;;;;;;;101.15;21.60;;;;;;;;;;4987652;28;20481;-69
2022/10/19 06:12:45;;;;;;;47.58;20.38;;;;;;;;;;4989491;28;20053;-68
2022/10/19 06:15:11;;;;;;;34.15;18.58;;;;;;;;;;4989628;28;20030;-69
2022/10/19 06:17:37;;;;;;;42.95;19.15;;;;;;;;;;4987634;28;20121;-69
2022/10/19 06:20:03;;;;;;;38.25;18.67;;;;;;;;;;4989466;28;20168;-69
2022/10/19 06:22:29;;;;;;;32.63;18.13;;;;;;;;;;4989291;28;20212;-69
2022/10/19 06:24:55;;;;;;;32.85;18.42;;;;;;;;;;4989815;28;20544;-70
2022/10/19 06:27:21;;;;;;;40.95;25.67;;;;;;;;;;4984889;28;20029;-69
2022/10/19 06:29:47;;;;;;;30.52;18.27;;;;;;;;;;4990322;28;20046;-69
2022/10/19 06:32:13;;;;;;;33.75;18.58;;;;;;;;;;4989681;28;20018;-70
2022/10/19 06:34:38;;;;;;;33.17;18.05;;;;;;;;;;4987392;28;20153;-70
2022/10/19 06:37:04;;;;;;;27.27;18.63;;;;;;;;;;4989053;28;20030;-71
2022/10/19 06:39:29;;;;;;;30.00;18.65;;;;;;;;;;4989807;28;20042;-69
2022/10/19 06:41:55;;;;;;;28.08;17.85;;;;;;;;;;4988799;28;20038;-71
2022/10/19 06:44:24;;;;;;;25.27;17.47;;;;;;;;;;4987590;28;20285;-70
2022/10/19 06:46:49;;;;;;;26.23;17.38;;;;;;;;;;4988874;28;20343;-70
2022/10/19 06:49:15;;;;;;;28.45;16.75;;;;;;;;;;4985885;28;20488;-71
2022/10/19 06:51:40;;;;;;;31.40;18.02;;;;;;;;;;4988411;28;20038;-70
2022/10/19 06:54:06;;;;;;;32.55;18.65;;;;;;;;;;4987521;28;20049;-70
2022/10/19 06:56:32;;;;;;;31.23;17.88;;;;;;;;;;4989015;28;20022;-71
2022/10/19 06:58:57;;;;;;;23.58;16.42;;;;;;;;;;4986452;28;20555;-71
2022/10/19 07:01:24;;;;;;;26.95;17.30;;;;;;;;;;4987109;28;20026;-71
2022/10/19 07:03:51;;;;;;;26.63;17.20;;;;;;;;;;4988318;28;20409;-71
2022/10/19 07:06:17;;;;;;;31.83;17.85;;;;;;;;;;4987548;28;20046;-71
2022/10/19 07:08:42;;;;;;;24.55;17.13;;;;;;;;;;4987531;28;20038;-70
2022/10/19 07:11:11;;;;;;;28.27;17.60;;;;;;;;;;4988155;28;20037;-71
2022/10/19 07:13:37;;;;;;;26.97;17.30;;;;;;;;;;4989073;28;20043;-70
2022/10/19 07:16:06;;;;;;;25.58;16.55;;;;;;;;;;4989310;28;20288;-70
2022/10/19 07:18:36;;;;;;;27.33;16.92;;;;;;;;;;4986093;28;20030;-71
2022/10/19 07:21:10;;;;;;;24.60;17.10;;;;;;;;;;4988189;28;20073;-71
2022/10/19 07:23:38;;;;;;;30.65;17.60;;;;;;;;;;4988275;28;20062;-70
2022/10/19 07:26:06;;;;;;;26.58;17.58;;;;;;;;;;4985660;28;20049;-69
2022/10/19 07:28:32;;;;;;;28.63;16.43;;;;;;;;;;4987995;28;20061;-70
2022/10/19 07:31:03;;;;;;;27.02;16.98;;;;;;;;;;4987216;28;20592;-71
2022/10/19 07:33:31;;;;;;;25.67;16.02;;;;;;;;;;4986642;28;20464;-71
2022/10/19 07:36:06;;;;;;;26.05;17.02;;;;;;;;;;4988290;28;20026;-71
2022/10/19 07:38:33;;;;;;;22.35;15.45;;;;;;;;;;4987363;28;20030;-69
2022/10/19 07:41:08;;;;;;;27.40;16.95;;;;;;;;;;4986601;28;20085;-70
2022/10/19 07:43:34;;;;;;;20.88;15.93;;;;;;;;;;4986601;28;20429;-70
2022/10/19 07:46:34;;;;;;;18.50;15.00;;;;;;;;;;4988346;28;20105;-70
2022/10/19 07:49:00;;;;;;;20.48;15.20;;;;;;;;;;4986552;28;20049;-71
2022/10/19 07:51:26;;;;;;;21.00;15.45;;;;;;;;;;4986484;28;20440;-70
2022/10/19 07:53:52;;;;;;;22.85;16.90;;;;;;;;;;4988103;28;20049;-71
2022/10/19 07:56:20;;;;;;;23.08;17.05;;;;;;;;;;4988526;28;20046;-70
2022/10/19 07:58:46;;;;;;;22.40;16.48;;;;;;;;;;4987961;28;20509;-70
2022/10/19 08:01:27;;;;;;;23.13;16.77;;;;;;;;;;4987091;28;20038;-71
2022/10/19 08:03:54;;;;;;;24.15;15.68;;;;;;;;;;4987986;28;20034;-70
2022/10/19 08:06:21;;;;;;;22.85;15.65;;;;;;;;;;4987750;28;20065;-71
2022/10/19 08:08:47;;;;;;;19.70;15.38;;;;;;;;;;4986743;28;20045;-69
2022/10/19 08:11:22;;;;;;;17.92;15.63;;;;;;;;;;4986816;28;20501;-71
2022/10/19 08:13:47;;;;;;;20.33;15.10;;;;;;;;;;4990016;28;20041;-71
2022/10/19 08:16:39;;;;;;;20.38;16.13;;;;;;;;;;4987220;28;20398;-71
2022/10/19 08:19:13;;;;;;;21.33;16.13;;;;;;;;;;4987033;28;20061;-71
2022/10/19 08:21:40;;;;;;;19.00;14.32;;;;;;;;;;4987540;28;20128;-71
2022/10/19 08:24:06;;;;;;;17.85;15.00;;;;;;;;;;4987887;28;20085;-68
2022/10/19 08:26:34;;;;;;;20.17;14.38;;;;;;;;;;4986936;28;20045;-69
2022/10/19 08:29:01;;;;;;;17.30;13.15;;;;;;;;;;4987700;28;20030;-70
2022/10/19 08:31:27;;;;;;;17.42;13.30;;;;;;;;;;4989101;28;20038;-71
2022/10/19 08:33:52;;;;;;;17.58;14.50;;;;;;;;;;4988381;28;20042;-71
2022/10/19 08:36:18;;;;;;;18.67;14.98;;;;;;;;;;4988423;28;20049;-70
2022/10/19 08:38:47;;;;;;;17.63;14.48;;;;;;;;;;4988906;28;20199;-70
2022/10/19 08:41:26;;;;;;;19.38;13.13;;;;;;;;;;4986892;28;20117;-70
2022/10/19 08:43:57;;;;;;;;;;;;;;;;;;4987023;28;20022;-70
2022/10/19 08:46:52;;;;;;;19.38;13.82;;;;;;;;;;4987246;28;20008;-71
2022/10/19 08:49:22;;;;;;;14.90;12.57;;;;;;;;;;4987013;28;20038;-71
2022/10/19 08:51:53;;;;;;;16.23;13.65;;;;;;;;;;4987723;28;20031;-71
2022/10/19 08:54:19;;;;;;;15.48;13.18;;;;;;;;;;4985469;28;20425;-70
2022/10/19 08:57:03;;;;;;;16.38;13.90;;;;;;;;;;4987308;28;20052;-69
2022/10/19 08:59:37;;;;;;;19.05;14.25;;;;;;;;;;4982947;28;20034;-71
2022/10/19 09:02:29;;;;;;;15.00;12.82;;;;;;;;;;4984083;28;20153;-70
2022/10/19 09:05:04;;;;;;;16.70;13.00;;;;;;;;;;4984223;28;20464;-70
2022/10/19 09:07:35;;;;;;;16.23;12.85;;;;;;;;;;4985482;28;20036;-70
2022/10/19 09:10:15;;;;;;;16.42;13.05;;;;;;;;;;4983247;28;20114;-71
2022/10/19 09:13:01;;;;;;;14.35;12.80;;;;;;;;;;4985125;28;20037;-71
2022/10/19 09:15:42;;;;;;;17.35;12.50;;;;;;;;;;4984113;28;20109;-70
2022/10/19 09:18:13;;;;;;;15.00;12.82;;;;;;;;;;4982713;28;20274;-71
2022/10/19 09:20:43;;;;;;;22.30;12.73;;;;;;;;;;4986711;28;20042;-70
2022/10/19 09:23:28;;;;;;;21.10;11.40;;;;;;;;;;4988568;28;20171;-69
2022/10/19 09:25:55;;;;;;;12.75;11.55;;;;;;;;;;4989106;28;20049;-71
2022/10/19 09:28:52;;;;;;;12.68;11.45;;;;;;;;;;4986141;28;20034;-69
2022/10/19 09:31:25;;;;;;;11.85;10.65;;;;;;;;;;4987647;28;20498;-71
2022/10/19 09:33:56;;;;;;;11.55;10.48;;;;;;;;;;4988924;28;20038;-69
2022/10/19 09:36:23;;;;;;;15.13;11.30;;;;;;;;;;4987388;28;20608;-71
2022/10/19 09:38:49;;;;;;;11.88;10.68;;;;;;;;;;4987153;28;20050;-71
2022/10/19 09:41:21;;;;;;;10.93;9.88;;;;;;;;;;4988130;28;20386;-72
2022/10/19 09:43:52;;;;;;;9.32;8.40;;;;;;;;;;4986681;28;20477;-71
2022/10/19 09:46:42;;;;;;;9.25;8.55;;;;;;;;;;4987407;28;20042;-70
2022/10/19 09:49:08;;;;;;;10.40;9.38;;;;;;;;;;4988805;28;20443;-71
2022/10/19 09:51:53;;;;;;;9.82;8.95;;;;;;;;;;4988264;28;20424;-69
2022/10/19 09:54:37;;;;;;;10.18;9.38;;;;;;;;;;4986420;28;20042;-69
2022/10/19 09:57:04;;;;;;;12.35;9.40;;;;;;;;;;4991650;28;20034;-70
2022/10/19 09:59:34;;;;;;;9.48;8.60;;;;;;;;;;4988633;28;20053;-70
2022/10/19 10:02:14;;;;;;;9.10;8.32;;;;;;;;;;4984177;28;20409;-70
2022/10/19 10:04:39;;;;;;;8.68;7.97;;;;;;;;;;4987144;28;20527;-71
2022/10/19 10:07:12;;;;;;;8.40;7.80;;;;;;;;;;4987971;28;20137;-71
2022/10/19 10:09:41;;;;;;;8.20;7.40;;;;;;;;;;4990371;28;20092;-71
2022/10/19 10:12:07;;;;;;;8.68;7.97;;;;;;;;;;4988176;28;20043;-71
2022/10/19 10:14:35;;;;;;;8.13;7.53;;;;;;;;;;4990296;28;20045;-70
2022/10/19 10:17:10;;;;;;;8.32;7.63;;;;;;;;;;4990219;28;20038;-69
2022/10/19 10:20:08;;;;;;;7.97;7.30;;;;;;;;;;4988554;28;20034;-71
2022/10/19 10:22:35;;;;;;;7.60;7.00;;;;;;;;;;4982089;28;20134;-71
2022/10/19 10:25:09;;;;;;;7.85;7.07;;;;;;;;;;4989958;28;20046;-71
2022/10/19 10:27:37;;;;;;;8.18;7.32;;;;;;;;;;4991281;28;20038;-71
2022/10/19 10:30:08;;;;;;;8.00;7.20;;;;;;;;;;4989093;28;20037;-70
2022/10/19 10:32:45;;;;;;;9.27;7.63;;;;;;;;;;4989818;28;20652;-71
2022/10/19 10:35:23;;;;;;;7.32;6.63;;;;;;;;;;4990900;28;20066;-69
2022/10/19 10:37:49;;;;;;;7.25;6.45;;;;;;;;;;4987776;28;20046;-70
2022/10/19 10:40:20;;;;;;;7.15;6.55;;;;;;;;;;4988950;28;20120;-70
2022/10/19 10:42:47;;;;;;;8.02;7.22;;;;;;;;;;4988138;28;20045;-70
2022/10/19 10:45:32;;;;;;;8.20;7.50;;;;;;;;;;4988638;28;20049;-70
2022/10/19 10:48:11;;;;;;;8.52;7.70;;;;;;;;;;4989095;28;20037;-71
2022/10/19 10:50:37;;;;;;;8.15;7.50;;;;;;;;;;4989157;28;20039;-70
2022/10/19 10:53:06;;;;;;;7.80;7.30;;;;;;;;;;4986545;28;20026;-71
2022/10/19 10:55:32;;;;;;;7.70;7.10;;;;;;;;;;4982450;28;20073;-69
2022/10/19 10:58:05;;;;;;;8.27;7.15;;;;;;;;;;4988369;28;20146;-70
2022/10/19 11:00:33;;;;;;;7.75;7.15;;;;;;;;;;4987309;28;20034;-70
2022/10/19 11:03:41;;;;;;;7.63;6.93;;;;;;;;;;4986775;28;20037;-71
2022/10/19 11:06:07;;;;;;;8.35;7.65;;;;;;;;;;4947325;29;20051;-71
2022/10/19 11:08:45;;;;;;;8.98;8.13;;;;;;;;;;4947094;29;20328;-71
2022/10/19 11:11:21;;;;;;;8.02;7.30;;;;;;;;;;4945996;28;20047;-71
2022/10/19 11:13:59;;;;;;;7.43;6.93;;;;;;;;;;4946966;29;20043;-71
2022/10/19 11:16:37;;;;;;;7.88;7.28;;;;;;;;;;4943959;29;20534;-71
2022/10/19 11:19:23;;;;;;;9.15;7.78;;;;;;;;;;4944785;28;20039;-71
2022/10/19 11:22:14;;;;;;;8.32;7.63;;;;;;;;;;4945594;29;20097;-70
2022/10/19 11:25:05;;;;;;;8.35;7.68;;;;;;;;;;4944756;29;20462;-71
2022/10/19 11:27:46;;;;;;;8.35;7.72;;;;;;;;;;4945973;28;20188;-69
2022/10/19 11:30:18;;;;;;;10.25;8.65;;;;;;;;;;4946730;29;20486;-70
2022/10/19 11:33:09;;;;;;;11.10;8.75;;;;;;;;;;4946206;29;20043;-70
2022/10/19 11:35:51;;;;;;;8.23;7.43;;;;;;;;;;4944743;28;20031;-70
2022/10/19 11:38:41;;;;;;;9.07;8.13;;;;;;;;;;4987588;28;20570;-70
2022/10/19 11:41:25;;;;;;;8.50;7.85;;;;;;;;;;4987385;28;20046;-69
2022/10/19 11:43:53;;;;;;;9.57;8.10;;;;;;;;;;4984392;28;20035;-71
2022/10/19 11:46:45;;;;;;;12.55;9.15;;;;;;;;;;4988524;28;20085;-70
2022/10/19 11:49:24;;;;;;;10.57;9.30;;;;;;;;;;4988141;28;20033;-70
2022/10/19 11:52:04;;;;;;;8.68;7.88;;;;;;;;;;4987029;28;20045;-71
2022/10/19 11:54:41;;;;;;;8.52;7.72;;;;;;;;;;4986020;28;20061;-69
2022/10/19 11:57:13;;;;;;;9.20;8.32;;;;;;;;;;4986293;28;20134;-70
2022/10/19 11:59:55;;;;;;;8.68;7.95;;;;;;;;;;4988024;28;20074;-71
2022/10/19 12:02:52;;;;;;;8.38;7.78;;;;;;;;;;4985579;28;20066;-71
2022/10/19 12:05:32;;;;;;;8.43;7.63;;;;;;;;;;4984456;28;20065;-72
2022/10/19 12:08:06;;;;;;;8.60;7.80;;;;;;;;;;4986513;28;20302;-71
2022/10/19 12:10:47;;;;;;;9.63;8.73;;;;;;;;;;4985894;28;20044;-71
2022/10/19 12:13:17;;;;;;;10.25;9.10;;;;;;;;;;4986693;28;20038;-72
2022/10/19 12:15:51;;;;;;;8.45;7.85;;;;;;;;;;4988534;28;20401;-72
2022/10/19 12:18:42;;;;;;;10.20;9.20;;;;;;;;;;4985075;28;20041;-72
2022/10/19 12:21:18;;;;;;;9.43;8.68;;;;;;;;;;4985137;28;20042;-71
2022/10/19 12:23:45;;;;;;;9.40;8.50;;;;;;;;;;4988192;28;20282;-72
2022/10/19 12:26:15;;;;;;;9.52;8.52;;;;;;;;;;4988212;28;20117;-72
2022/10/19 12:28:51;;;;;;;9.40;8.52;;;;;;;;;;4985809;28;20045;-72
2022/10/19 12:31:17;;;;;;;9.63;8.60;;;;;;;;;;4986475;28;20037;-72
2022/10/19 12:34:01;;;;;;;9.18;8.38;;;;;;;;;;4988099;28;20042;-71
2022/10/19 12:36:45;;;;;;;8.50;7.85;;;;;;;;;;4986683;28;20034;-72
2022/10/19 12:39:29;;;;;;;8.20;7.50;;;;;;;;;;4987965;28;20068;-72
2022/10/19 12:42:32;;;;;;;9.13;8.23;;;;;;;;;;4988067;28;20105;-71
2022/10/19 12:45:25;;;;;;;10.23;8.45;;;;;;;;;;4983586;28;20042;-71
2022/10/19 12:48:07;;;;;;;11.82;8.45;;;;;;;;;;4985718;28;20509;-71
2022/10/19 12:50:48;;;;;;;8.95;8.05;;;;;;;;;;4986923;28;20125;-70
2022/10/19 12:53:29;;;;;;;9.13;8.43;;;;;;;;;;4984803;28;20386;-72
2022/10/19 12:56:25;;;;;;;8.23;7.63;;;;;;;;;;4989544;28;20088;-70
2022/10/19 12:58:58;;;;;;;8.20;7.50;;;;;;;;;;4987071;28;20088;-72
2022/10/19 13:01:42;;;;;;;8.30;7.70;;;;;;;;;;4989709;28;20494;-71
2022/10/19 13:04:14;;;;;;;8.25;7.65;;;;;;;;;;4988148;28;20093;-71
2022/10/19 13:06:44;;;;;;;9.20;7.55;;;;;;;;;;4985648;28;20045;-70
2022/10/19 13:09:28;;;;;;;8.20;7.50;;;;;;;;;;4989173;28;20042;-72
2022/10/19 13:12:12;;;;;;;8.05;7.55;;;;;;;;;;4989254;28;20038;-72
2022/10/19 13:14:45;;;;;;;8.73;8.02;;;;;;;;;;4982958;28;20441;-70
2022/10/19 13:17:33;;;;;;;8.32;7.55;;;;;;;;;;4992456;28;20586;-71
2022/10/19 13:20:13;;;;;;;7.85;7.25;;;;;;;;;;4989010;28;20116;-71
2022/10/19 13:22:44;;;;;;;7.93;7.22;;;;;;;;;;4987808;28;20050;-72
2022/10/19 13:25:16;;;;;;;7.40;6.90;;;;;;;;;;4989710;28;20058;-72
2022/10/19 13:27:45;;;;;;;7.72;7.00;;;;;;;;;;4986335;28;20045;-71
2022/10/19 13:30:46;;;;;;;8.05;7.40;;;;;;;;;;4997929;28;20042;-70
2022/10/19 13:33:33;;;;;;;7.93;7.20;;;;;;;;;;4990320;28;20551;-70
2022/10/19 13:35:59;;;;;;;9.10;8.43;;;;;;;;;;4987851;28;20448;-71
2022/10/19 13:38:34;;;;;;;7.90;7.30;;;;;;;;;;4990064;28;20085;-70
2022/10/19 13:41:03;;;;;;;7.75;7.25;;;;;;;;;;4987442;28;20038;-71
2022/10/19 13:43:30;;;;;;;;;;;;;;;;;;4988471;28;20034;-71
2022/10/19 13:46:13;;;;;;;8.00;7.40;;;;;;;;;;4989305;28;19922;-71
2022/10/19 13:49:20;;;;;;;7.57;7.03;;;;;;;;;;4988089;28;20046;-70
2022/10/19 13:52:38;;;;;;;8.38;7.35;;;;;;;;;;4976061;28;20038;-72
2022/10/19 13:55:19;;;;;;;7.90;7.30;;;;;;;;;;4987570;28;20041;-70
2022/10/19 13:58:00;;;;;;;7.20;6.70;;;;;;;;;;4988360;28;20042;-70
2022/10/19 14:00:36;;;;;;;8.13;7.53;;;;;;;;;;4986672;28;20145;-72
2022/10/19 14:03:38;;;;;;;8.18;7.63;;;;;;;;;;4987409;28;20437;-72
2022/10/19 14:06:25;;;;;;;7.40;6.90;;;;;;;;;;4986264;28;20046;-71
2022/10/19 14:08:51;;;;;;;7.85;7.35;;;;;;;;;;4985920;28;20038;-70
2022/10/19 14:11:39;;;;;;;8.13;7.53;;;;;;;;;;4987545;28;20037;-70
2022/10/19 14:14:10;;;;;;;7.40;6.80;;;;;;;;;;4988756;28;20038;-71
2022/10/19 14:17:10;;;;;;;8.15;7.38;;;;;;;;;;4986902;28;20042;-70
2022/10/19 14:19:55;;;;;;;8.40;7.78;;;;;;;;;;4984187;28;20042;-71
2022/10/19 14:22:32;;;;;;;7.80;7.20;;;;;;;;;;4987928;28;20038;-72
2022/10/19 14:25:20;;;;;;;7.90;7.22;;;;;;;;;;4986555;28;20061;-71
2022/10/19 14:27:49;;;;;;;7.43;6.82;;;;;;;;;;4986153;28;20053;-71
2022/10/19 14:30:24;;;;;;;8.10;7.50;;;;;;;;;;4988357;28;20042;-72
2022/10/19 14:32:50;;;;;;;9.63;8.88;;;;;;;;;;4986535;28;20057;-71
2022/10/19 14:35:27;;;;;;;14.80;11.23;;;;;;;;;;4987790;28;20038;-72
2022/10/19 14:37:53;;;;;;;9.05;8.32;;;;;;;;;;4988721;28;20066;-71
2022/10/19 14:40:19;;;;;;;9.10;8.40;;;;;;;;;;4987648;28;20046;-72
2022/10/19 14:42:45;;;;;;;9.10;8.40;;;;;;;;;;4984343;28;20042;-71
2022/10/19 14:45:23;;;;;;;9.60;8.80;;;;;;;;;;4987637;28;20038;-70
2022/10/19 14:48:06;;;;;;;9.00;8.40;;;;;;;;;;4984195;28;20042;-70
2022/10/19 14:50:49;;;;;;;11.13;10.23;;;;;;;;;;4985535;28;20042;-71
2022/10/19 14:54:00;;;;;;;8.50;7.80;;;;;;;;;;4985763;28;20488;-71
2022/10/19 14:56:31;;;;;;;9.07;8.38;;;;;;;;;;4961294;28;20142;-72
2022/10/19 14:59:00;;;;;;;9.77;9.00;;;;;;;;;;4963985;28;20046;-71